createdAt,value
2018-05-31T00:00:23.534Z,1002.89
2018-05-31T00:01:23.561Z,1002.93
2018-05-31T00:02:23.588Z,1002.94
2018-05-31T00:03:23.611Z,1002.9
2018-05-31T00:04:23.637Z,1002.9
2018-05-31T00:05:23.660Z,1002.91
2018-05-31T00:06:23.689Z,1002.85
2018-05-31T00:07:23.718Z,1002.86
2018-05-31T00:08:23.745Z,1002.87
2018-05-31T00:09:23.765Z,1002.88
2018-05-31T00:10:23.796Z,1002.86
2018-05-31T00:11:23.816Z,1002.83
2018-05-31T00:12:23.841Z,1002.83
2018-05-31T00:13:23.871Z,1002.82
2018-05-31T00:14:23.896Z,1002.8
2018-05-31T00:15:23.921Z,1002.75
2018-05-31T00:16:23.957Z,1002.73
2018-05-31T00:17:23.972Z,1002.73
2018-05-31T00:18:24.002Z,1002.69
2018-05-31T00:19:24.028Z,1002.68
2018-05-31T00:20:24.057Z,1002.64
2018-05-31T00:21:24.081Z,1002.63
2018-05-31T00:22:24.106Z,1002.63
2018-05-31T00:23:24.129Z,1002.63
2018-05-31T00:24:24.158Z,1002.62
2018-05-31T00:25:24.184Z,1002.61
2018-05-31T00:26:24.216Z,1002.63
2018-05-31T00:27:24.237Z,1002.65
2018-05-31T00:28:24.266Z,1002.64
2018-05-31T00:29:24.290Z,1002.61
2018-05-31T00:30:24.311Z,1002.57
2018-05-31T00:31:24.338Z,1002.56
2018-05-31T00:32:24.364Z,1002.59
2018-05-31T00:33:24.399Z,1002.56
2018-05-31T00:34:24.425Z,1002.53
2018-05-31T00:35:24.454Z,1002.57
2018-05-31T00:36:24.471Z,1002.61
2018-05-31T00:37:24.496Z,1002.63
2018-05-31T00:38:24.530Z,1002.66
2018-05-31T00:39:24.554Z,1002.68
2018-05-31T00:40:24.580Z,1002.71
2018-05-31T00:41:24.601Z,1002.71
2018-05-31T00:42:24.626Z,1002.66
2018-05-31T00:43:24.651Z,1002.65
2018-05-31T00:44:24.678Z,1002.68
2018-05-31T00:45:24.706Z,1002.65
2018-05-31T00:46:24.733Z,1002.62
2018-05-31T00:47:24.755Z,1002.64
2018-05-31T00:48:24.782Z,1002.63
2018-05-31T00:49:24.807Z,1002.62
2018-05-31T00:50:24.830Z,1002.63
2018-05-31T00:51:24.864Z,1002.67
2018-05-31T00:52:24.887Z,1002.66
2018-05-31T00:53:24.908Z,1002.66
2018-05-31T00:54:24.938Z,1002.69
2018-05-31T00:55:24.965Z,1002.71
2018-05-31T00:56:24.989Z,1002.68
2018-05-31T00:57:25.010Z,1002.66
2018-05-31T00:58:25.039Z,1002.67
2018-05-31T00:59:25.068Z,1002.67
2018-05-31T01:00:25.097Z,1002.66
2018-05-31T01:01:25.111Z,1002.66
2018-05-31T01:02:25.141Z,1002.69
2018-05-31T01:03:25.172Z,1002.71
2018-05-31T01:04:25.200Z,1002.71
2018-05-31T01:05:25.221Z,1002.71
2018-05-31T01:06:25.245Z,1002.75
2018-05-31T01:07:25.278Z,1002.74
2018-05-31T01:08:25.297Z,1002.73
2018-05-31T01:09:25.317Z,1002.73
2018-05-31T01:10:25.342Z,1002.72
2018-05-31T01:11:25.368Z,1002.66
2018-05-31T01:12:25.401Z,1002.67
2018-05-31T01:13:25.425Z,1002.66
2018-05-31T01:14:25.459Z,1002.71
2018-05-31T01:15:25.468Z,1002.71
2018-05-31T01:16:25.501Z,1002.76
2018-05-31T01:17:25.529Z,1002.75
2018-05-31T01:18:25.556Z,1002.78
2018-05-31T01:19:25.577Z,1002.81
2018-05-31T01:20:25.604Z,1002.8
2018-05-31T01:21:25.628Z,1002.82
2018-05-31T01:22:25.650Z,1002.83
2018-05-31T01:23:25.671Z,1002.84
2018-05-31T01:24:25.697Z,1002.83
2018-05-31T01:25:25.728Z,1002.79
2018-05-31T01:26:25.751Z,1002.77
2018-05-31T01:27:25.773Z,1002.73
2018-05-31T01:28:25.799Z,1002.75
2018-05-31T01:29:25.826Z,1002.7
2018-05-31T01:30:25.854Z,1002.73
2018-05-31T01:31:25.880Z,1002.72
2018-05-31T01:32:25.906Z,1002.76
2018-05-31T01:33:25.934Z,1002.75
2018-05-31T01:34:25.953Z,1002.76
2018-05-31T01:35:25.979Z,1002.77
2018-05-31T01:36:26.015Z,1002.76
2018-05-31T01:37:26.029Z,1002.79
2018-05-31T01:38:26.057Z,1002.79
2018-05-31T01:39:26.081Z,1002.81
2018-05-31T01:40:26.107Z,1002.81
2018-05-31T01:41:26.127Z,1002.76
2018-05-31T01:42:26.161Z,1002.79
2018-05-31T01:43:26.186Z,1002.73
2018-05-31T01:44:26.211Z,1002.71
2018-05-31T01:45:26.231Z,1002.73
2018-05-31T01:46:26.257Z,1002.75
2018-05-31T01:47:26.287Z,1002.76
2018-05-31T01:48:26.312Z,1002.75
2018-05-31T01:49:26.342Z,1002.75
2018-05-31T01:50:26.359Z,1002.77
2018-05-31T01:51:26.387Z,1002.74
2018-05-31T01:52:26.407Z,1002.76
2018-05-31T01:53:26.438Z,1002.77
2018-05-31T01:54:26.457Z,1002.78
2018-05-31T01:55:26.540Z,1002.77
2018-05-31T01:56:26.509Z,1002.83
2018-05-31T01:57:26.539Z,1002.78
2018-05-31T01:58:26.563Z,1002.81
2018-05-31T01:59:26.578Z,1002.79
2018-05-31T02:00:26.609Z,1002.76
2018-05-31T02:01:26.632Z,1002.76
2018-05-31T02:02:26.659Z,1002.78
2018-05-31T02:03:26.680Z,1002.76
2018-05-31T02:04:26.707Z,1002.78
2018-05-31T02:05:26.731Z,1002.73
2018-05-31T02:06:26.759Z,1002.74
2018-05-31T02:07:26.786Z,1002.77
2018-05-31T02:08:26.808Z,1002.78
2018-05-31T02:09:26.830Z,1002.8
2018-05-31T02:10:26.964Z,1002.79
2018-05-31T02:11:26.883Z,1002.79
2018-05-31T02:12:26.912Z,1002.77
2018-05-31T02:13:26.933Z,1002.74
2018-05-31T02:14:26.960Z,1002.73
2018-05-31T02:15:26.979Z,1002.74
2018-05-31T02:16:27.009Z,1002.76
2018-05-31T02:17:27.032Z,1002.73
2018-05-31T02:18:27.054Z,1002.75
2018-05-31T02:19:27.084Z,1002.77
2018-05-31T02:20:27.110Z,1002.75
2018-05-31T02:21:27.153Z,1002.76
2018-05-31T02:22:27.158Z,1002.72
2018-05-31T02:23:27.180Z,1002.72
2018-05-31T02:24:27.209Z,1002.71
2018-05-31T02:25:27.234Z,1002.71
2018-05-31T02:26:27.260Z,1002.68
2018-05-31T02:27:27.277Z,1002.7
2018-05-31T02:28:27.308Z,1002.7
2018-05-31T02:29:27.337Z,1002.72
2018-05-31T02:30:27.355Z,1002.74
2018-05-31T02:31:27.383Z,1002.8
2018-05-31T02:32:27.403Z,1002.78
2018-05-31T02:33:27.430Z,1002.79
2018-05-31T02:34:27.451Z,1002.79
2018-05-31T02:35:27.481Z,1002.79
2018-05-31T02:36:27.500Z,1002.8
2018-05-31T02:37:27.530Z,1002.79
2018-05-31T02:38:27.550Z,1002.85
2018-05-31T02:39:27.582Z,1002.85
2018-05-31T02:40:27.602Z,1002.85
2018-05-31T02:41:27.626Z,1002.83
2018-05-31T02:42:27.657Z,1002.84
2018-05-31T02:43:27.672Z,1002.85
2018-05-31T02:44:27.697Z,1002.8
2018-05-31T02:45:27.722Z,1002.81
2018-05-31T02:46:27.750Z,1002.79
2018-05-31T02:47:27.777Z,1002.79
2018-05-31T02:48:27.798Z,1002.76
2018-05-31T02:49:27.820Z,1002.8
2018-05-31T02:50:27.854Z,1002.75
2018-05-31T02:51:27.870Z,1002.77
2018-05-31T02:52:27.900Z,1002.74
2018-05-31T02:53:27.925Z,1002.78
2018-05-31T02:54:27.948Z,1002.77
2018-05-31T02:55:27.968Z,1002.78
2018-05-31T02:56:27.998Z,1002.74
2018-05-31T02:57:28.023Z,1002.75
2018-05-31T02:58:28.047Z,1002.72
2018-05-31T02:59:28.069Z,1002.73
2018-05-31T03:00:28.090Z,1002.66
2018-05-31T03:01:28.122Z,1002.64
2018-05-31T03:02:28.140Z,1002.6
2018-05-31T03:03:28.174Z,1002.59
2018-05-31T03:04:28.191Z,1002.62
2018-05-31T03:05:28.213Z,1002.6
2018-05-31T03:06:28.241Z,1002.62
2018-05-31T03:07:28.272Z,1002.59
2018-05-31T03:08:28.287Z,1002.6
2018-05-31T03:09:28.311Z,1002.61
2018-05-31T03:10:28.393Z,1002.62
2018-05-31T03:11:28.372Z,1002.6
2018-05-31T03:12:28.386Z,1002.57
2018-05-31T03:13:28.414Z,1002.57
2018-05-31T03:14:28.434Z,1002.58
2018-05-31T03:15:28.468Z,1002.57
2018-05-31T03:16:28.487Z,1002.58
2018-05-31T03:17:28.512Z,1002.57
2018-05-31T03:18:28.534Z,1002.61
2018-05-31T03:19:28.559Z,1002.66
2018-05-31T03:20:28.584Z,1002.6
2018-05-31T03:21:28.605Z,1002.6
2018-05-31T03:22:28.631Z,1002.59
2018-05-31T03:23:28.658Z,1002.55
2018-05-31T03:24:28.684Z,1002.56
2018-05-31T03:25:28.707Z,1002.52
2018-05-31T03:26:28.732Z,1002.5
2018-05-31T03:27:28.756Z,1002.46
2018-05-31T03:28:28.778Z,1002.47
2018-05-31T03:29:28.807Z,1002.49
2018-05-31T03:30:28.828Z,1002.48
2018-05-31T03:31:28.858Z,1002.47
2018-05-31T03:32:28.882Z,1002.54
2018-05-31T03:33:28.898Z,1002.54
2018-05-31T03:34:28.920Z,1002.54
2018-05-31T03:35:28.944Z,1002.55
2018-05-31T03:36:28.970Z,1002.59
2018-05-31T03:37:29.002Z,1002.52
2018-05-31T03:38:29.021Z,1002.55
2018-05-31T03:39:29.049Z,1002.54
2018-05-31T03:40:29.071Z,1002.53
2018-05-31T03:41:29.104Z,1002.56
2018-05-31T03:42:29.120Z,1002.59
2018-05-31T03:43:29.142Z,1002.57
2018-05-31T03:44:29.171Z,1002.61
2018-05-31T03:45:29.192Z,1002.61
2018-05-31T03:46:29.212Z,1002.61
2018-05-31T03:47:29.320Z,1002.64
2018-05-31T03:48:29.267Z,1002.64
2018-05-31T03:49:29.289Z,1002.6
2018-05-31T03:50:29.337Z,1002.59
2018-05-31T03:51:29.344Z,1002.6
2018-05-31T03:52:29.357Z,1002.59
2018-05-31T03:53:29.381Z,1002.55
2018-05-31T03:54:29.410Z,1002.55
2018-05-31T03:55:29.438Z,1002.52
2018-05-31T03:56:29.462Z,1002.56
2018-05-31T03:57:29.482Z,1002.54
2018-05-31T03:58:29.505Z,1002.58
2018-05-31T03:59:29.564Z,1002.58
2018-05-31T04:00:29.558Z,1002.54
2018-05-31T04:01:29.580Z,1002.55
2018-05-31T04:02:29.603Z,1002.55
2018-05-31T04:03:29.633Z,1002.54
2018-05-31T04:04:29.653Z,1002.54
2018-05-31T04:05:29.680Z,1002.54
2018-05-31T04:06:29.696Z,1002.55
2018-05-31T04:07:29.728Z,1002.53
2018-05-31T04:08:29.747Z,1002.58
2018-05-31T04:09:29.775Z,1002.58
2018-05-31T04:10:29.798Z,1002.62
2018-05-31T04:11:29.873Z,1002.65
2018-05-31T04:12:29.840Z,1002.67
2018-05-31T04:13:29.865Z,1002.74
2018-05-31T04:14:29.888Z,1002.74
2018-05-31T04:15:29.920Z,1002.76
2018-05-31T04:16:29.937Z,1002.72
2018-05-31T04:17:29.970Z,1002.73
2018-05-31T04:18:29.983Z,1002.78
2018-05-31T04:19:30.014Z,1002.77
2018-05-31T04:20:30.034Z,1002.79
2018-05-31T04:21:30.057Z,1002.73
2018-05-31T04:22:30.088Z,1002.71
2018-05-31T04:23:30.107Z,1002.73
2018-05-31T04:24:30.134Z,1002.71
2018-05-31T04:25:30.162Z,1002.71
2018-05-31T04:26:30.186Z,1002.71
2018-05-31T04:27:30.203Z,1002.66
2018-05-31T04:28:30.229Z,1002.69
2018-05-31T04:29:30.256Z,1002.69
2018-05-31T04:30:30.279Z,1002.65
2018-05-31T04:31:30.304Z,1002.67
2018-05-31T04:32:30.334Z,1002.69
2018-05-31T04:33:30.353Z,1002.64
2018-05-31T04:34:30.375Z,1002.59
2018-05-31T04:35:30.398Z,1002.6
2018-05-31T04:36:30.418Z,1002.65
2018-05-31T04:37:30.455Z,1002.67
2018-05-31T04:38:30.472Z,1002.62
2018-05-31T04:39:30.494Z,1002.65
2018-05-31T04:40:30.520Z,1002.66
2018-05-31T04:41:30.545Z,1002.66
2018-05-31T04:42:30.624Z,1002.65
2018-05-31T04:43:30.596Z,1002.63
2018-05-31T04:44:30.612Z,1002.6
2018-05-31T04:45:30.636Z,1002.57
2018-05-31T04:46:30.668Z,1002.57
2018-05-31T04:47:30.688Z,1002.59
2018-05-31T04:48:30.717Z,1002.57
2018-05-31T04:49:30.732Z,1002.62
2018-05-31T04:50:30.757Z,1002.65
2018-05-31T04:51:30.783Z,1002.67
2018-05-31T04:52:30.810Z,1002.72
2018-05-31T04:53:30.855Z,1002.74
2018-05-31T04:54:30.863Z,1002.76
2018-05-31T04:55:30.882Z,1002.78
2018-05-31T04:56:30.907Z,1002.8
2018-05-31T04:57:30.927Z,1002.77
2018-05-31T04:58:30.956Z,1002.76
2018-05-31T04:59:30.980Z,1002.76
2018-05-31T05:00:31.006Z,1002.74
2018-05-31T05:01:31.025Z,1002.78
2018-05-31T05:02:31.058Z,1002.76
2018-05-31T05:03:31.068Z,1002.76
2018-05-31T05:04:31.098Z,1002.8
2018-05-31T05:05:31.125Z,1002.79
2018-05-31T05:06:31.148Z,1002.77
2018-05-31T05:07:31.207Z,1002.8
2018-05-31T05:08:31.189Z,1002.84
2018-05-31T05:09:31.220Z,1002.82
2018-05-31T05:10:31.239Z,1002.8
2018-05-31T05:11:31.270Z,1002.83
2018-05-31T05:12:31.290Z,1002.81
2018-05-31T05:13:31.314Z,1002.87
2018-05-31T05:14:31.338Z,1002.84
2018-05-31T05:15:31.360Z,1002.84
2018-05-31T05:16:31.381Z,1002.85
2018-05-31T05:17:31.407Z,1002.87
2018-05-31T05:18:31.441Z,1002.83
2018-05-31T05:19:31.456Z,1002.8
2018-05-31T05:20:31.479Z,1002.83
2018-05-31T05:21:31.511Z,1002.86
2018-05-31T05:22:31.528Z,1002.85
2018-05-31T05:23:31.555Z,1002.85
2018-05-31T05:24:31.583Z,1002.89
2018-05-31T05:25:31.604Z,1002.89
2018-05-31T05:26:31.708Z,1002.87
2018-05-31T05:27:31.654Z,1002.92
2018-05-31T05:28:31.672Z,1002.95
2018-05-31T05:29:31.704Z,1002.9
2018-05-31T05:30:31.728Z,1002.91
2018-05-31T05:31:31.756Z,1002.93
2018-05-31T05:32:31.812Z,1002.9
2018-05-31T05:33:31.791Z,1002.89
2018-05-31T05:34:31.816Z,1002.91
2018-05-31T05:35:31.844Z,1002.93
2018-05-31T05:36:31.868Z,1002.88
2018-05-31T05:37:31.892Z,1002.88
2018-05-31T05:38:31.914Z,1002.88
2018-05-31T05:39:31.939Z,1002.91
2018-05-31T05:40:31.963Z,1002.91
2018-05-31T05:41:31.985Z,1002.98
2018-05-31T05:42:32.009Z,1002.97
2018-05-31T05:43:32.035Z,1003.02
2018-05-31T05:44:32.056Z,1002.99
2018-05-31T05:45:32.088Z,1003
2018-05-31T05:46:32.104Z,1003.01
2018-05-31T05:47:32.137Z,1003.05
2018-05-31T05:48:32.156Z,1003.04
2018-05-31T05:49:32.179Z,1003.04
2018-05-31T05:50:32.206Z,1003.04
2018-05-31T05:51:32.233Z,1003.07
2018-05-31T05:52:32.253Z,1003.06
2018-05-31T05:53:32.277Z,1003.04
2018-05-31T05:54:32.306Z,1003.05
2018-05-31T05:55:32.330Z,1003.06
2018-05-31T05:56:32.416Z,1003.05
2018-05-31T05:57:32.374Z,1003.05
2018-05-31T05:58:32.397Z,1002.98
2018-05-31T05:59:32.424Z,1002.99
2018-05-31T06:00:32.454Z,1002.99
2018-05-31T06:01:32.476Z,1003
2018-05-31T06:02:32.491Z,1003.01
2018-05-31T06:03:32.522Z,1003.03
2018-05-31T06:04:32.539Z,1003.05
2018-05-31T06:05:32.569Z,1003.02
2018-05-31T06:06:32.588Z,1003.01
2018-05-31T06:07:32.617Z,1003.04
2018-05-31T06:08:32.641Z,1003.01
2018-05-31T06:09:32.666Z,1003.02
2018-05-31T06:10:32.688Z,1002.96
2018-05-31T06:11:32.713Z,1002.95
2018-05-31T06:12:32.740Z,1002.95
2018-05-31T06:13:32.761Z,1002.95
2018-05-31T06:14:32.782Z,1002.96
2018-05-31T06:15:32.847Z,1002.95
2018-05-31T06:16:32.830Z,1002.93
2018-05-31T06:17:32.862Z,1002.98
2018-05-31T06:18:32.883Z,1002.98
2018-05-31T06:19:32.910Z,1002.97
2018-05-31T06:20:32.936Z,1002.98
2018-05-31T06:21:32.957Z,1002.95
2018-05-31T06:22:32.981Z,1002.96
2018-05-31T06:23:33.013Z,1003
2018-05-31T06:24:33.043Z,1002.96
2018-05-31T06:25:33.052Z,1003.02
2018-05-31T06:26:33.145Z,1003.02
2018-05-31T06:27:33.102Z,1003.01
2018-05-31T06:28:33.130Z,1003.03
2018-05-31T06:29:33.154Z,1003.02
2018-05-31T06:30:33.233Z,1002.96
2018-05-31T06:31:33.197Z,1002.97
2018-05-31T06:32:33.223Z,1002.99
2018-05-31T06:33:33.270Z,1002.99
2018-05-31T06:34:33.273Z,1003
2018-05-31T06:35:33.309Z,1003.01
2018-05-31T06:36:33.324Z,1003.04
2018-05-31T06:37:33.343Z,1003.07
2018-05-31T06:38:33.365Z,1003.1
2018-05-31T06:39:33.395Z,1003.1
2018-05-31T06:40:33.422Z,1003.08
2018-05-31T06:41:33.441Z,1003.12
2018-05-31T06:42:33.468Z,1003.12
2018-05-31T06:43:33.539Z,1003.11
2018-05-31T06:44:33.517Z,1003.13
2018-05-31T06:45:33.537Z,1003.12
2018-05-31T06:46:33.560Z,1003.13
2018-05-31T06:47:33.594Z,1003.12
2018-05-31T06:48:33.609Z,1003.14
2018-05-31T06:49:33.640Z,1003.13
2018-05-31T06:50:33.672Z,1003.15
2018-05-31T06:51:33.693Z,1003.1
2018-05-31T06:52:33.721Z,1003.11
2018-05-31T06:53:33.733Z,1003.08
2018-05-31T06:54:33.767Z,1003.09
2018-05-31T06:55:33.790Z,1003.08
2018-05-31T06:56:33.811Z,1003.1
2018-05-31T06:57:33.836Z,1003.13
2018-05-31T06:58:33.865Z,1003.14
2018-05-31T06:59:33.880Z,1003.11
2018-05-31T07:00:33.909Z,1003.08
2018-05-31T07:01:33.934Z,1003.1
2018-05-31T07:02:33.961Z,1003.08
2018-05-31T07:03:33.984Z,1003.1
2018-05-31T07:04:34.013Z,1003.1
2018-05-31T07:05:34.030Z,1003.08
2018-05-31T07:06:34.063Z,1003.07
2018-05-31T07:07:34.101Z,1003.12
2018-05-31T07:08:34.108Z,1003.13
2018-05-31T07:09:34.129Z,1003.12
2018-05-31T07:10:34.161Z,1003.13
2018-05-31T07:11:34.178Z,1003.13
2018-05-31T07:12:34.212Z,1003.14
2018-05-31T07:13:34.227Z,1003.1
2018-05-31T07:14:34.254Z,1003.13
2018-05-31T07:15:34.280Z,1003.15
2018-05-31T07:16:34.308Z,1003.11
2018-05-31T07:17:34.326Z,1003.1
2018-05-31T07:18:34.358Z,1003.13
2018-05-31T07:19:34.380Z,1003.15
2018-05-31T07:20:34.408Z,1003.13
2018-05-31T07:21:34.429Z,1003.14
2018-05-31T07:22:34.459Z,1003.2
2018-05-31T07:23:34.485Z,1003.17
2018-05-31T07:24:34.501Z,1003.16
2018-05-31T07:25:34.535Z,1003.23
2018-05-31T07:26:34.551Z,1003.23
2018-05-31T07:27:34.584Z,1003.24
2018-05-31T07:28:34.610Z,1003.24
2018-05-31T07:29:34.632Z,1003.27
2018-05-31T07:30:34.655Z,1003.29
2018-05-31T07:31:34.681Z,1003.28
2018-05-31T07:32:34.709Z,1003.26
2018-05-31T07:33:34.733Z,1003.26
2018-05-31T07:34:34.760Z,1003.28
2018-05-31T07:35:34.777Z,1003.27
2018-05-31T07:36:34.805Z,1003.26
2018-05-31T07:37:34.839Z,1003.26
2018-05-31T07:38:34.860Z,1003.23
2018-05-31T07:39:34.881Z,1003.26
2018-05-31T07:40:34.908Z,1003.27
2018-05-31T07:41:34.941Z,1003.25
2018-05-31T07:42:34.960Z,1003.28
2018-05-31T07:43:34.980Z,1003.28
2018-05-31T07:44:35.010Z,1003.26
2018-05-31T07:45:35.036Z,1003.22
2018-05-31T07:46:35.059Z,1003.23
2018-05-31T07:47:35.081Z,1003.21
2018-05-31T07:48:35.110Z,1003.22
2018-05-31T07:49:35.137Z,1003.22
2018-05-31T07:50:35.163Z,1003.26
2018-05-31T07:51:35.192Z,1003.21
2018-05-31T07:52:35.215Z,1003.2
2018-05-31T07:53:35.241Z,1003.23
2018-05-31T07:54:35.261Z,1003.24
2018-05-31T07:55:35.295Z,1003.24
2018-05-31T07:56:35.320Z,1003.26
2018-05-31T07:57:35.340Z,1003.24
2018-05-31T07:58:35.367Z,1003.23
2018-05-31T07:59:35.394Z,1003.26
2018-05-31T08:00:35.422Z,1003.23
2018-05-31T08:01:35.453Z,1003.22
2018-05-31T08:02:35.472Z,1003.19
2018-05-31T08:03:35.498Z,1003.2
2018-05-31T08:04:35.529Z,1003.22
2018-05-31T08:05:35.549Z,1003.23
2018-05-31T08:06:35.577Z,1003.24
2018-05-31T08:07:35.598Z,1003.24
2018-05-31T08:08:35.626Z,1003.22
2018-05-31T08:09:35.653Z,1003.29
2018-05-31T08:10:35.681Z,1003.27
2018-05-31T08:11:35.703Z,1003.25
2018-05-31T08:12:35.738Z,1003.28
2018-05-31T08:13:35.764Z,1003.27
2018-05-31T08:14:35.787Z,1003.3
2018-05-31T08:15:35.817Z,1003.29
2018-05-31T08:16:35.840Z,1003.28
2018-05-31T08:17:35.860Z,1003.27
2018-05-31T08:18:35.893Z,1003.3
2018-05-31T08:19:35.919Z,1003.3
2018-05-31T08:20:35.949Z,1003.28
2018-05-31T08:21:35.977Z,1003.25
2018-05-31T08:22:35.994Z,1003.29
2018-05-31T08:23:36.023Z,1003.33
2018-05-31T08:24:36.057Z,1003.37
2018-05-31T08:25:36.077Z,1003.33
2018-05-31T08:26:36.110Z,1003.33
2018-05-31T08:27:36.133Z,1003.33
2018-05-31T08:28:36.164Z,1003.31
2018-05-31T08:29:36.183Z,1003.32
2018-05-31T08:30:36.217Z,1003.3
2018-05-31T08:31:36.344Z,1003.34
2018-05-31T08:32:36.280Z,1003.29
2018-05-31T08:33:36.292Z,1003.28
2018-05-31T08:34:36.384Z,1003.28
2018-05-31T08:35:36.345Z,1003.28
2018-05-31T08:36:36.371Z,1003.24
2018-05-31T08:37:36.407Z,1003.25
2018-05-31T08:38:36.435Z,1003.24
2018-05-31T08:39:36.459Z,1003.24
2018-05-31T08:40:36.481Z,1003.22
2018-05-31T08:41:36.517Z,1003.25
2018-05-31T08:42:36.539Z,1003.26
2018-05-31T08:43:36.563Z,1003.29
2018-05-31T08:44:36.599Z,1003.29
2018-05-31T08:45:36.625Z,1003.29
2018-05-31T08:46:36.648Z,1003.3
2018-05-31T08:47:36.674Z,1003.27
2018-05-31T08:48:36.705Z,1003.29
2018-05-31T08:49:36.734Z,1003.3
2018-05-31T08:50:36.762Z,1003.32
2018-05-31T08:51:36.784Z,1003.32
2018-05-31T08:52:36.819Z,1003.34
2018-05-31T08:53:36.840Z,1003.34
2018-05-31T08:54:36.874Z,1003.37
2018-05-31T08:55:36.902Z,1003.36
2018-05-31T08:56:36.932Z,1003.4
2018-05-31T08:57:36.955Z,1003.36
2018-05-31T08:58:36.980Z,1003.36
2018-05-31T08:59:37.007Z,1003.3
2018-05-31T09:00:37.042Z,1003.32
2018-05-31T09:01:37.068Z,1003.31
2018-05-31T09:02:37.101Z,1003.31
2018-05-31T09:03:37.129Z,1003.3
2018-05-31T09:04:37.158Z,1003.31
2018-05-31T09:05:37.184Z,1003.3
2018-05-31T09:06:37.207Z,1003.27
2018-05-31T09:07:37.237Z,1003.31
2018-05-31T09:08:37.264Z,1003.29
2018-05-31T09:09:37.292Z,1003.28
2018-05-31T09:10:37.324Z,1003.3
2018-05-31T09:11:37.358Z,1003.3
2018-05-31T09:12:37.387Z,1003.25
2018-05-31T09:13:37.414Z,1003.27
2018-05-31T09:14:37.435Z,1003.25
2018-05-31T09:15:37.464Z,1003.26
2018-05-31T09:16:37.499Z,1003.28
2018-05-31T09:17:37.527Z,1003.26
2018-05-31T09:18:37.563Z,1003.25
2018-05-31T09:19:37.589Z,1003.26
2018-05-31T09:20:37.618Z,1003.3
2018-05-31T09:21:37.641Z,1003.3
2018-05-31T09:22:37.675Z,1003.24
2018-05-31T09:23:37.698Z,1003.27
2018-05-31T09:24:37.736Z,1003.29
2018-05-31T09:25:37.755Z,1003.28
2018-05-31T09:26:37.784Z,1003.28
2018-05-31T09:27:37.817Z,1003.28
2018-05-31T09:28:37.922Z,1003.28
2018-05-31T09:29:37.875Z,1003.28
2018-05-31T09:30:37.912Z,1003.22
2018-05-31T09:31:37.934Z,1003.29
2018-05-31T09:32:37.962Z,1003.31
2018-05-31T09:33:37.990Z,1003.33
2018-05-31T09:34:38.021Z,1003.3
2018-05-31T09:35:38.050Z,1003.28
2018-05-31T09:36:38.084Z,1003.33
2018-05-31T09:37:38.116Z,1003.28
2018-05-31T09:38:38.143Z,1003.36
2018-05-31T09:39:38.174Z,1003.31
2018-05-31T09:40:38.202Z,1003.3
2018-05-31T09:41:38.233Z,1003.32
2018-05-31T09:42:38.260Z,1003.32
2018-05-31T09:43:38.289Z,1003.31
2018-05-31T09:44:38.327Z,1003.3
2018-05-31T09:45:38.358Z,1003.35
2018-05-31T09:46:38.411Z,1003.33
2018-05-31T09:47:38.420Z,1003.36
2018-05-31T09:48:38.441Z,1003.35
2018-05-31T09:49:38.475Z,1003.34
2018-05-31T09:50:38.503Z,1003.3
2018-05-31T09:51:38.536Z,1003.36
2018-05-31T09:52:38.577Z,1003.34
2018-05-31T09:53:38.601Z,1003.32
2018-05-31T09:54:38.633Z,1003.31
2018-05-31T09:55:38.654Z,1003.31
2018-05-31T09:56:38.691Z,1003.3
2018-05-31T09:57:38.720Z,1003.31
2018-05-31T09:58:38.755Z,1003.3
2018-05-31T09:59:38.782Z,1003.26
2018-05-31T10:00:38.813Z,1003.28
2018-05-31T10:01:38.844Z,1003.26
2018-05-31T10:02:38.880Z,1003.25
2018-05-31T10:03:38.903Z,1003.26
2018-05-31T10:04:38.938Z,1003.29
2018-05-31T10:05:38.969Z,1003.28
2018-05-31T10:06:39.002Z,1003.3
2018-05-31T10:07:39.032Z,1003.29
2018-05-31T10:08:39.062Z,1003.27
2018-05-31T10:09:39.090Z,1003.28
2018-05-31T10:10:39.127Z,1003.31
2018-05-31T10:11:39.156Z,1003.34
2018-05-31T10:12:39.184Z,1003.31
2018-05-31T10:13:39.224Z,1003.28
2018-05-31T10:14:39.257Z,1003.27
2018-05-31T10:15:39.333Z,1003.26
2018-05-31T10:16:39.320Z,1003.28
2018-05-31T10:17:39.350Z,1003.24
2018-05-31T10:18:39.384Z,1003.26
2018-05-31T10:19:39.416Z,1003.22
2018-05-31T10:20:39.437Z,1003.26
2018-05-31T10:21:39.474Z,1003.31
2018-05-31T10:22:39.507Z,1003.33
2018-05-31T10:23:39.534Z,1003.33
2018-05-31T10:24:39.566Z,1003.34
2018-05-31T10:25:39.603Z,1003.37
2018-05-31T10:26:39.634Z,1003.35
2018-05-31T10:27:39.668Z,1003.31
2018-05-31T10:28:39.700Z,1003.33
2018-05-31T10:29:39.757Z,1003.33
2018-05-31T10:30:39.811Z,1003.32
2018-05-31T10:31:39.803Z,1003.31
2018-05-31T10:32:39.824Z,1003.29
2018-05-31T10:33:39.864Z,1003.24
2018-05-31T10:34:39.894Z,1003.24
2018-05-31T10:35:39.926Z,1003.21
2018-05-31T10:36:39.961Z,1003.19
2018-05-31T10:37:39.988Z,1003.17
2018-05-31T10:38:40.025Z,1003.15
2018-05-31T10:39:40.062Z,1003.15
2018-05-31T10:40:40.091Z,1003.12
2018-05-31T10:41:40.125Z,1003.12
2018-05-31T10:42:40.151Z,1003.13
2018-05-31T10:43:40.187Z,1003.11
2018-05-31T10:44:40.221Z,1003.15
2018-05-31T10:45:40.255Z,1003.12
2018-05-31T10:46:40.284Z,1003.11
2018-05-31T10:47:40.321Z,1003.1
2018-05-31T10:48:40.352Z,1003.08
2018-05-31T10:49:40.386Z,1003.06
2018-05-31T10:50:40.417Z,1003.09
2018-05-31T10:51:40.453Z,1003.04
2018-05-31T10:52:40.495Z,1003.04
2018-05-31T10:53:40.517Z,1003.07
2018-05-31T10:54:40.552Z,1003.08
2018-05-31T10:55:40.589Z,1003.04
2018-05-31T10:56:40.619Z,1003.05
2018-05-31T10:57:40.656Z,1003.02
2018-05-31T10:58:40.691Z,1003.04
2018-05-31T10:59:40.720Z,1003.02
2018-05-31T11:00:40.760Z,1002.99
2018-05-31T11:01:40.795Z,1003.02
2018-05-31T11:02:40.819Z,1003.02
2018-05-31T11:03:40.859Z,1002.96
2018-05-31T11:04:40.892Z,1002.97
2018-05-31T11:05:40.931Z,1002.96
2018-05-31T11:06:40.955Z,1002.97
2018-05-31T11:07:40.994Z,1002.95
2018-05-31T11:08:41.056Z,1003
2018-05-31T11:09:41.061Z,1002.99
2018-05-31T11:10:41.095Z,1002.97
2018-05-31T11:11:41.129Z,1002.97
2018-05-31T11:12:41.165Z,1002.97
2018-05-31T11:13:41.199Z,1002.98
2018-05-31T11:14:41.243Z,1002.99
2018-05-31T11:15:41.262Z,1003
2018-05-31T11:16:41.307Z,1002.98
2018-05-31T11:17:41.337Z,1002.97
2018-05-31T11:18:41.368Z,1003.01
2018-05-31T11:19:41.404Z,1002.98
2018-05-31T11:20:41.436Z,1002.96
2018-05-31T11:21:41.521Z,1002.96
2018-05-31T11:22:41.509Z,1002.93
2018-05-31T11:23:41.544Z,1002.94
2018-05-31T11:24:41.579Z,1002.91
2018-05-31T11:25:41.609Z,1002.92
2018-05-31T11:26:41.647Z,1002.9
2018-05-31T11:27:41.687Z,1002.89
2018-05-31T11:28:41.714Z,1002.92
2018-05-31T11:29:41.749Z,1002.97
2018-05-31T11:30:41.793Z,1002.9
2018-05-31T11:31:41.823Z,1002.9
2018-05-31T11:32:41.856Z,1002.85
2018-05-31T11:33:41.897Z,1002.85
2018-05-31T11:34:41.930Z,1002.83
2018-05-31T11:35:41.966Z,1002.85
2018-05-31T11:36:42.003Z,1002.79
2018-05-31T11:37:42.034Z,1002.76
2018-05-31T11:38:42.072Z,1002.79
2018-05-31T11:39:42.106Z,1002.77
2018-05-31T11:40:42.140Z,1002.74
2018-05-31T11:41:42.242Z,1002.71
2018-05-31T11:42:42.210Z,1002.72
2018-05-31T11:43:42.251Z,1002.72
2018-05-31T11:44:42.286Z,1002.68
2018-05-31T11:45:42.314Z,1002.7
2018-05-31T11:46:42.350Z,1002.71
2018-05-31T11:47:42.392Z,1002.72
2018-05-31T11:48:42.420Z,1002.7
2018-05-31T11:49:42.460Z,1002.7
2018-05-31T11:50:42.501Z,1002.72
2018-05-31T11:51:42.533Z,1002.68
2018-05-31T11:52:42.573Z,1002.69
2018-05-31T11:53:42.608Z,1002.67
2018-05-31T11:54:42.640Z,1002.69
2018-05-31T11:55:42.671Z,1002.68
2018-05-31T11:56:42.715Z,1002.7
2018-05-31T11:57:42.749Z,1002.66
2018-05-31T11:58:42.780Z,1002.65
2018-05-31T11:59:42.826Z,1002.73
2018-05-31T12:00:42.866Z,1002.61
2018-05-31T12:01:42.935Z,1002.62
2018-05-31T12:02:42.926Z,1002.62
2018-05-31T12:03:42.981Z,1002.59
2018-05-31T12:04:42.999Z,1002.62
2018-05-31T12:05:43.040Z,1002.59
2018-05-31T12:06:43.066Z,1002.56
2018-05-31T12:07:43.111Z,1002.56
2018-05-31T12:08:43.142Z,1002.54